sensor_id;sensor_type;location;lat;lon;timestamp;temperature;humidity
25991;DHT22;13779;-33.886;151.198;2023-05-07T00:00:35;13.10;99.90
25991;DHT22;13779;-33.886;151.198;2023-05-07T00:03:05;12.90;99.90
25991;DHT22;13779;-33.886;151.198;2023-05-07T00:05:36;13.00;99.90
25991;DHT22;13779;-33.886;151.198;2023-05-07T00:08:07;13.00;99.90
25991;DHT22;13779;-33.886;151.198;2023-05-07T00:10:37;13.00;99.90
25991;DHT22;13779;-33.886;151.198;2023-05-07T00:13:07;12.90;99.90
25991;DHT22;13779;-33.886;151.198;2023-05-07T00:15:37;12.90;99.90
25991;DHT22;13779;-33.886;151.198;2023-05-07T00:18:07;12.90;99.90
25991;DHT22;13779;-33.886;151.198;2023-05-07T00:20:37;12.80;99.90
25991;DHT22;13779;-33.886;151.198;2023-05-07T00:23:07;12.70;99.90
25991;DHT22;13779;-33.886;151.198;2023-05-07T00:25:37;12.80;99.90
25991;DHT22;13779;-33.886;151.198;2023-05-07T00:28:07;12.70;99.90
25991;DHT22;13779;-33.886;151.198;2023-05-07T00:30:37;12.80;99.90
25991;DHT22;13779;-33.886;151.198;2023-05-07T00:33:07;12.80;99.90
25991;DHT22;13779;-33.886;151.198;2023-05-07T00:35:37;12.80;99.90
25991;DHT22;13779;-33.886;151.198;2023-05-07T00:38:08;12.70;99.90
25991;DHT22;13779;-33.886;151.198;2023-05-07T00:40:38;12.80;99.90
25991;DHT22;13779;-33.886;151.198;2023-05-07T00:43:08;12.80;99.90
25991;DHT22;13779;-33.886;151.198;2023-05-07T00:45:38;12.70;99.90
25991;DHT22;13779;-33.886;151.198;2023-05-07T00:48:09;12.70;99.90
25991;DHT22;13779;-33.886;151.198;2023-05-07T00:50:39;12.70;99.90
25991;DHT22;13779;-33.886;151.198;2023-05-07T00:53:09;12.70;99.90
25991;DHT22;13779;-33.886;151.198;2023-05-07T00:55:39;12.80;99.90
25991;DHT22;13779;-33.886;151.198;2023-05-07T00:58:09;12.80;99.90
25991;DHT22;13779;-33.886;151.198;2023-05-07T01:00:40;12.80;99.90
25991;DHT22;13779;-33.886;151.198;2023-05-07T01:03:10;12.80;99.90
25991;DHT22;13779;-33.886;151.198;2023-05-07T01:05:41;12.80;99.90
25991;DHT22;13779;-33.886;151.198;2023-05-07T01:08:13;12.80;99.90
25991;DHT22;13779;-33.886;151.198;2023-05-07T01:10:44;12.80;99.90
25991;DHT22;13779;-33.886;151.198;2023-05-07T01:13:15;12.80;99.90
25991;DHT22;13779;-33.886;151.198;2023-05-07T01:15:46;12.70;99.90
25991;DHT22;13779;-33.886;151.198;2023-05-07T01:18:17;12.70;99.90
25991;DHT22;13779;-33.886;151.198;2023-05-07T01:20:48;12.70;99.90
25991;DHT22;13779;-33.886;151.198;2023-05-07T01:23:19;12.70;99.90
25991;DHT22;13779;-33.886;151.198;2023-05-07T01:25:55;12.70;99.90
25991;DHT22;13779;-33.886;151.198;2023-05-07T01:28:26;12.70;99.90
25991;DHT22;13779;-33.886;151.198;2023-05-07T01:31:02;12.70;99.90
25991;DHT22;13779;-33.886;151.198;2023-05-07T01:33:35;12.60;99.90
25991;DHT22;13779;-33.886;151.198;2023-05-07T01:36:08;12.70;99.90
25991;DHT22;13779;-33.886;151.198;2023-05-07T01:38:40;12.80;99.90
25991;DHT22;13779;-33.886;151.198;2023-05-07T01:41:12;12.80;99.90
25991;DHT22;13779;-33.886;151.198;2023-05-07T01:43:43;12.90;99.90
25991;DHT22;13779;-33.886;151.198;2023-05-07T01:46:13;12.90;99.90
25991;DHT22;13779;-33.886;151.198;2023-05-07T01:48:46;13.00;99.90
25991;DHT22;13779;-33.886;151.198;2023-05-07T01:51:17;13.10;99.90
25991;DHT22;13779;-33.886;151.198;2023-05-07T01:53:50;13.10;99.90
25991;DHT22;13779;-33.886;151.198;2023-05-07T01:56:23;13.10;99.90
25991;DHT22;13779;-33.886;151.198;2023-05-07T01:58:54;13.30;99.90
25991;DHT22;13779;-33.886;151.198;2023-05-07T02:01:24;13.40;99.90
25991;DHT22;13779;-33.886;151.198;2023-05-07T02:03:55;13.50;99.90
25991;DHT22;13779;-33.886;151.198;2023-05-07T02:06:27;13.50;99.90
25991;DHT22;13779;-33.886;151.198;2023-05-07T02:08:57;13.40;99.90
25991;DHT22;13779;-33.886;151.198;2023-05-07T02:11:31;13.50;99.90
25991;DHT22;13779;-33.886;151.198;2023-05-07T02:14:01;13.40;99.90
25991;DHT22;13779;-33.886;151.198;2023-05-07T02:16:32;13.40;99.90
25991;DHT22;13779;-33.886;151.198;2023-05-07T02:19:02;13.50;99.90
25991;DHT22;13779;-33.886;151.198;2023-05-07T02:21:32;13.70;99.90
25991;DHT22;13779;-33.886;151.198;2023-05-07T02:24:03;13.90;99.90
25991;DHT22;13779;-33.886;151.198;2023-05-07T02:26:33;14.00;99.90
25991;DHT22;13779;-33.886;151.198;2023-05-07T02:29:04;14.20;99.90
25991;DHT22;13779;-33.886;151.198;2023-05-07T02:31:34;14.30;99.90
25991;DHT22;13779;-33.886;151.198;2023-05-07T02:34:05;14.40;99.90
25991;DHT22;13779;-33.886;151.198;2023-05-07T02:36:35;14.40;99.90
25991;DHT22;13779;-33.886;151.198;2023-05-07T02:39:06;14.40;99.90
25991;DHT22;13779;-33.886;151.198;2023-05-07T02:41:37;14.50;99.90
25991;DHT22;13779;-33.886;151.198;2023-05-07T02:44:07;14.50;99.90
25991;DHT22;13779;-33.886;151.198;2023-05-07T02:46:38;14.70;99.90
25991;DHT22;13779;-33.886;151.198;2023-05-07T02:49:09;14.70;99.90
25991;DHT22;13779;-33.886;151.198;2023-05-07T02:51:39;14.80;99.90
25991;DHT22;13779;-33.886;151.198;2023-05-07T02:54:10;14.90;99.90
25991;DHT22;13779;-33.886;151.198;2023-05-07T02:56:41;14.90;99.90
25991;DHT22;13779;-33.886;151.198;2023-05-07T02:59:11;14.90;99.90
25991;DHT22;13779;-33.886;151.198;2023-05-07T03:01:42;14.90;99.90
25991;DHT22;13779;-33.886;151.198;2023-05-07T03:04:15;14.90;99.90
25991;DHT22;13779;-33.886;151.198;2023-05-07T03:06:46;14.80;99.90
25991;DHT22;13779;-33.886;151.198;2023-05-07T03:09:16;14.80;99.90
25991;DHT22;13779;-33.886;151.198;2023-05-07T03:11:46;14.70;99.90
25991;DHT22;13779;-33.886;151.198;2023-05-07T03:14:17;14.50;99.90
25991;DHT22;13779;-33.886;151.198;2023-05-07T03:16:49;14.10;99.90
25991;DHT22;13779;-33.886;151.198;2023-05-07T03:19:20;13.60;99.90
25991;DHT22;13779;-33.886;151.198;2023-05-07T03:21:50;13.20;99.90
25991;DHT22;13779;-33.886;151.198;2023-05-07T03:24:22;12.90;99.90
25991;DHT22;13779;-33.886;151.198;2023-05-07T03:26:52;12.80;99.90
25991;DHT22;13779;-33.886;151.198;2023-05-07T03:29:23;12.70;99.90
25991;DHT22;13779;-33.886;151.198;2023-05-07T03:31:53;12.60;99.90
25991;DHT22;13779;-33.886;151.198;2023-05-07T03:34:24;12.80;99.90
25991;DHT22;13779;-33.886;151.198;2023-05-07T03:36:55;13.00;99.90
25991;DHT22;13779;-33.886;151.198;2023-05-07T03:39:25;13.20;99.90
25991;DHT22;13779;-33.886;151.198;2023-05-07T03:41:57;13.40;99.90
25991;DHT22;13779;-33.886;151.198;2023-05-07T03:44:28;13.50;99.90
25991;DHT22;13779;-33.886;151.198;2023-05-07T03:46:58;13.60;99.90
25991;DHT22;13779;-33.886;151.198;2023-05-07T03:49:29;13.60;99.90
25991;DHT22;13779;-33.886;151.198;2023-05-07T03:51:59;13.70;99.90
25991;DHT22;13779;-33.886;151.198;2023-05-07T03:54:30;13.80;99.90
25991;DHT22;13779;-33.886;151.198;2023-05-07T03:57:01;13.90;99.90
25991;DHT22;13779;-33.886;151.198;2023-05-07T03:59:31;14.00;99.90
25991;DHT22;13779;-33.886;151.198;2023-05-07T04:02:02;14.30;99.90
25991;DHT22;13779;-33.886;151.198;2023-05-07T04:04:32;14.40;99.90
25991;DHT22;13779;-33.886;151.198;2023-05-07T04:07:02;14.60;99.90
25991;DHT22;13779;-33.886;151.198;2023-05-07T04:09:32;14.60;99.90
25991;DHT22;13779;-33.886;151.198;2023-05-07T04:12:03;14.70;99.90
25991;DHT22;13779;-33.886;151.198;2023-05-07T04:14:34;14.70;99.90
25991;DHT22;13779;-33.886;151.198;2023-05-07T04:17:04;14.80;99.90
25991;DHT22;13779;-33.886;151.198;2023-05-07T04:19:36;14.80;99.90
25991;DHT22;13779;-33.886;151.198;2023-05-07T04:22:06;14.80;99.90
25991;DHT22;13779;-33.886;151.198;2023-05-07T04:24:36;14.70;99.90
25991;DHT22;13779;-33.886;151.198;2023-05-07T04:27:06;14.90;99.90
25991;DHT22;13779;-33.886;151.198;2023-05-07T04:29:36;15.10;99.90
25991;DHT22;13779;-33.886;151.198;2023-05-07T04:32:08;15.30;99.90
25991;DHT22;13779;-33.886;151.198;2023-05-07T04:34:39;15.40;99.90
25991;DHT22;13779;-33.886;151.198;2023-05-07T04:37:09;15.50;99.90
25991;DHT22;13779;-33.886;151.198;2023-05-07T04:39:39;15.40;99.90
25991;DHT22;13779;-33.886;151.198;2023-05-07T04:42:13;15.40;99.90
25991;DHT22;13779;-33.886;151.198;2023-05-07T04:44:45;15.40;99.90
25991;DHT22;13779;-33.886;151.198;2023-05-07T04:47:16;15.40;99.90
25991;DHT22;13779;-33.886;151.198;2023-05-07T04:49:47;15.40;99.90
25991;DHT22;13779;-33.886;151.198;2023-05-07T04:52:17;15.40;99.90
25991;DHT22;13779;-33.886;151.198;2023-05-07T04:54:48;15.50;99.90
25991;DHT22;13779;-33.886;151.198;2023-05-07T04:57:18;15.50;99.90
25991;DHT22;13779;-33.886;151.198;2023-05-07T04:59:49;15.60;99.90
25991;DHT22;13779;-33.886;151.198;2023-05-07T05:02:20;15.60;99.90
25991;DHT22;13779;-33.886;151.198;2023-05-07T05:04:50;15.60;99.90
25991;DHT22;13779;-33.886;151.198;2023-05-07T05:07:20;15.70;99.90
25991;DHT22;13779;-33.886;151.198;2023-05-07T05:09:50;15.70;99.90
25991;DHT22;13779;-33.886;151.198;2023-05-07T05:12:20;15.70;99.90
25991;DHT22;13779;-33.886;151.198;2023-05-07T05:14:53;15.70;99.90
25991;DHT22;13779;-33.886;151.198;2023-05-07T05:17:24;15.70;99.90
25991;DHT22;13779;-33.886;151.198;2023-05-07T05:19:54;15.60;99.90
25991;DHT22;13779;-33.886;151.198;2023-05-07T05:22:25;15.60;99.90
25991;DHT22;13779;-33.886;151.198;2023-05-07T05:24:55;15.60;99.90
25991;DHT22;13779;-33.886;151.198;2023-05-07T05:27:27;15.50;99.90
25991;DHT22;13779;-33.886;151.198;2023-05-07T05:30:01;15.40;99.90
25991;DHT22;13779;-33.886;151.198;2023-05-07T05:32:31;15.30;99.90
25991;DHT22;13779;-33.886;151.198;2023-05-07T05:35:01;15.30;99.90
25991;DHT22;13779;-33.886;151.198;2023-05-07T05:37:32;15.20;99.90
25991;DHT22;13779;-33.886;151.198;2023-05-07T05:40:02;15.20;99.90
25991;DHT22;13779;-33.886;151.198;2023-05-07T05:42:33;15.20;99.90
25991;DHT22;13779;-33.886;151.198;2023-05-07T05:45:03;15.20;99.90
25991;DHT22;13779;-33.886;151.198;2023-05-07T05:47:34;15.20;99.90
25991;DHT22;13779;-33.886;151.198;2023-05-07T05:50:05;15.20;99.90
25991;DHT22;13779;-33.886;151.198;2023-05-07T05:52:36;15.20;99.90
25991;DHT22;13779;-33.886;151.198;2023-05-07T05:55:06;15.10;99.90
25991;DHT22;13779;-33.886;151.198;2023-05-07T05:57:36;15.10;99.90
25991;DHT22;13779;-33.886;151.198;2023-05-07T06:00:07;15.10;99.90
25991;DHT22;13779;-33.886;151.198;2023-05-07T06:02:38;15.10;99.90
25991;DHT22;13779;-33.886;151.198;2023-05-07T06:05:08;15.20;99.90
25991;DHT22;13779;-33.886;151.198;2023-05-07T06:07:39;15.20;99.90
25991;DHT22;13779;-33.886;151.198;2023-05-07T06:10:09;15.20;99.90
25991;DHT22;13779;-33.886;151.198;2023-05-07T06:12:40;15.20;99.90
25991;DHT22;13779;-33.886;151.198;2023-05-07T06:15:11;15.20;99.90
25991;DHT22;13779;-33.886;151.198;2023-05-07T06:17:41;15.20;99.90
25991;DHT22;13779;-33.886;151.198;2023-05-07T06:20:11;15.10;99.90
25991;DHT22;13779;-33.886;151.198;2023-05-07T06:22:41;15.10;99.90
25991;DHT22;13779;-33.886;151.198;2023-05-07T06:25:11;15.10;99.90
25991;DHT22;13779;-33.886;151.198;2023-05-07T06:27:41;15.00;99.90
25991;DHT22;13779;-33.886;151.198;2023-05-07T06:30:12;14.90;99.90
25991;DHT22;13779;-33.886;151.198;2023-05-07T06:32:42;14.90;99.90
25991;DHT22;13779;-33.886;151.198;2023-05-07T06:35:12;14.80;99.90
25991;DHT22;13779;-33.886;151.198;2023-05-07T06:37:42;14.80;99.90
25991;DHT22;13779;-33.886;151.198;2023-05-07T06:40:13;14.70;99.90
25991;DHT22;13779;-33.886;151.198;2023-05-07T06:42:43;14.70;99.90
25991;DHT22;13779;-33.886;151.198;2023-05-07T06:45:13;14.60;99.90
25991;DHT22;13779;-33.886;151.198;2023-05-07T06:47:44;14.50;99.90
25991;DHT22;13779;-33.886;151.198;2023-05-07T06:50:14;14.60;99.90
25991;DHT22;13779;-33.886;151.198;2023-05-07T06:52:46;14.50;99.90
25991;DHT22;13779;-33.886;151.198;2023-05-07T06:55:16;14.30;99.90
25991;DHT22;13779;-33.886;151.198;2023-05-07T06:57:48;14.20;99.90
25991;DHT22;13779;-33.886;151.198;2023-05-07T07:00:19;14.20;99.90
25991;DHT22;13779;-33.886;151.198;2023-05-07T07:02:49;14.20;99.90
25991;DHT22;13779;-33.886;151.198;2023-05-07T07:05:20;14.10;99.90
25991;DHT22;13779;-33.886;151.198;2023-05-07T07:07:50;14.10;99.90
25991;DHT22;13779;-33.886;151.198;2023-05-07T07:10:22;14.00;99.90
25991;DHT22;13779;-33.886;151.198;2023-05-07T07:12:53;14.00;99.90
25991;DHT22;13779;-33.886;151.198;2023-05-07T07:15:24;13.90;99.90
25991;DHT22;13779;-33.886;151.198;2023-05-07T07:17:54;14.00;99.90
25991;DHT22;13779;-33.886;151.198;2023-05-07T07:20:24;13.90;99.90
25991;DHT22;13779;-33.886;151.198;2023-05-07T07:22:54;13.80;99.90
25991;DHT22;13779;-33.886;151.198;2023-05-07T07:25:24;13.70;99.90
25991;DHT22;13779;-33.886;151.198;2023-05-07T07:27:55;13.70;99.90
25991;DHT22;13779;-33.886;151.198;2023-05-07T07:30:25;13.60;99.90
25991;DHT22;13779;-33.886;151.198;2023-05-07T07:32:55;13.60;99.90
25991;DHT22;13779;-33.886;151.198;2023-05-07T07:35:32;13.50;99.90
25991;DHT22;13779;-33.886;151.198;2023-05-07T07:38:02;13.50;99.90
25991;DHT22;13779;-33.886;151.198;2023-05-07T07:40:35;13.40;99.90
25991;DHT22;13779;-33.886;151.198;2023-05-07T07:43:05;13.40;99.90
25991;DHT22;13779;-33.886;151.198;2023-05-07T07:45:36;13.30;99.90
25991;DHT22;13779;-33.886;151.198;2023-05-07T07:48:07;13.30;99.90
25991;DHT22;13779;-33.886;151.198;2023-05-07T07:50:38;13.40;99.90
25991;DHT22;13779;-33.886;151.198;2023-05-07T07:53:12;13.30;99.90
25991;DHT22;13779;-33.886;151.198;2023-05-07T07:55:42;13.40;99.90
25991;DHT22;13779;-33.886;151.198;2023-05-07T07:58:13;13.30;99.90
25991;DHT22;13779;-33.886;151.198;2023-05-07T08:00:43;13.30;99.90
25991;DHT22;13779;-33.886;151.198;2023-05-07T08:03:13;13.20;99.90
25991;DHT22;13779;-33.886;151.198;2023-05-07T08:05:46;13.20;99.90
25991;DHT22;13779;-33.886;151.198;2023-05-07T08:08:16;13.10;99.90
25991;DHT22;13779;-33.886;151.198;2023-05-07T08:10:46;13.10;99.90
25991;DHT22;13779;-33.886;151.198;2023-05-07T08:13:19;13.10;99.90
25991;DHT22;13779;-33.886;151.198;2023-05-07T08:15:49;13.10;99.90
25991;DHT22;13779;-33.886;151.198;2023-05-07T08:18:20;13.10;99.90
25991;DHT22;13779;-33.886;151.198;2023-05-07T08:20:50;13.00;99.90
25991;DHT22;13779;-33.886;151.198;2023-05-07T08:23:20;13.00;99.90
25991;DHT22;13779;-33.886;151.198;2023-05-07T08:25:51;12.90;99.90
25991;DHT22;13779;-33.886;151.198;2023-05-07T08:28:21;13.00;99.90
25991;DHT22;13779;-33.886;151.198;2023-05-07T08:30:54;13.00;99.90
25991;DHT22;13779;-33.886;151.198;2023-05-07T08:33:26;13.00;99.90
25991;DHT22;13779;-33.886;151.198;2023-05-07T08:35:56;13.00;99.90
25991;DHT22;13779;-33.886;151.198;2023-05-07T08:38:26;13.00;99.90
25991;DHT22;13779;-33.886;151.198;2023-05-07T08:40:56;12.90;99.90
25991;DHT22;13779;-33.886;151.198;2023-05-07T08:43:27;13.00;99.90
25991;DHT22;13779;-33.886;151.198;2023-05-07T08:46:00;12.90;99.90
25991;DHT22;13779;-33.886;151.198;2023-05-07T08:48:36;13.00;99.90
25991;DHT22;13779;-33.886;151.198;2023-05-07T08:51:08;12.90;99.90
25991;DHT22;13779;-33.886;151.198;2023-05-07T08:53:38;12.80;99.90
25991;DHT22;13779;-33.886;151.198;2023-05-07T08:56:10;12.80;99.90
25991;DHT22;13779;-33.886;151.198;2023-05-07T08:58:44;12.80;99.90
25991;DHT22;13779;-33.886;151.198;2023-05-07T09:01:16;12.80;99.90
25991;DHT22;13779;-33.886;151.198;2023-05-07T09:03:47;12.80;99.90
25991;DHT22;13779;-33.886;151.198;2023-05-07T09:06:17;12.80;99.90
25991;DHT22;13779;-33.886;151.198;2023-05-07T09:08:54;12.80;99.90
25991;DHT22;13779;-33.886;151.198;2023-05-07T09:11:25;12.80;99.90
25991;DHT22;13779;-33.886;151.198;2023-05-07T09:13:56;12.80;99.90
25991;DHT22;13779;-33.886;151.198;2023-05-07T09:16:31;12.80;99.90
25991;DHT22;13779;-33.886;151.198;2023-05-07T09:19:01;12.70;99.90
25991;DHT22;13779;-33.886;151.198;2023-05-07T09:21:31;12.80;99.90
25991;DHT22;13779;-33.886;151.198;2023-05-07T09:24:02;12.80;99.90
25991;DHT22;13779;-33.886;151.198;2023-05-07T09:26:32;12.80;99.90
25991;DHT22;13779;-33.886;151.198;2023-05-07T09:29:04;12.90;99.90
25991;DHT22;13779;-33.886;151.198;2023-05-07T09:31:37;12.90;99.90
25991;DHT22;13779;-33.886;151.198;2023-05-07T09:34:07;12.90;99.90
25991;DHT22;13779;-33.886;151.198;2023-05-07T09:36:37;12.90;99.90
25991;DHT22;13779;-33.886;151.198;2023-05-07T09:39:08;13.00;99.90
25991;DHT22;13779;-33.886;151.198;2023-05-07T09:41:47;12.90;99.90
25991;DHT22;13779;-33.886;151.198;2023-05-07T09:44:18;12.80;99.90
25991;DHT22;13779;-33.886;151.198;2023-05-07T09:46:54;12.70;99.90
25991;DHT22;13779;-33.886;151.198;2023-05-07T09:49:28;12.60;99.90
25991;DHT22;13779;-33.886;151.198;2023-05-07T09:52:03;12.60;99.90
25991;DHT22;13779;-33.886;151.198;2023-05-07T09:54:36;12.50;99.90
25991;DHT22;13779;-33.886;151.198;2023-05-07T09:57:11;12.50;99.90
25991;DHT22;13779;-33.886;151.198;2023-05-07T09:59:43;12.40;99.90
25991;DHT22;13779;-33.886;151.198;2023-05-07T10:02:22;12.50;99.90
25991;DHT22;13779;-33.886;151.198;2023-05-07T10:04:54;12.40;99.90
25991;DHT22;13779;-33.886;151.198;2023-05-07T10:07:25;12.30;99.90
25991;DHT22;13779;-33.886;151.198;2023-05-07T10:09:56;12.40;99.90
25991;DHT22;13779;-33.886;151.198;2023-05-07T10:12:27;12.40;99.90
25991;DHT22;13779;-33.886;151.198;2023-05-07T10:14:57;12.40;99.90
25991;DHT22;13779;-33.886;151.198;2023-05-07T10:17:28;12.40;99.90
25991;DHT22;13779;-33.886;151.198;2023-05-07T10:20:00;12.30;99.90
25991;DHT22;13779;-33.886;151.198;2023-05-07T10:22:37;12.30;99.90
25991;DHT22;13779;-33.886;151.198;2023-05-07T10:25:22;12.30;99.90
25991;DHT22;13779;-33.886;151.198;2023-05-07T10:27:54;12.20;99.90
25991;DHT22;13779;-33.886;151.198;2023-05-07T10:33:34;12.10;99.90
25991;DHT22;13779;-33.886;151.198;2023-05-07T10:36:09;12.10;99.90
25991;DHT22;13779;-33.886;151.198;2023-05-07T10:38:40;12.10;99.90
25991;DHT22;13779;-33.886;151.198;2023-05-07T10:41:11;12.10;99.90
25991;DHT22;13779;-33.886;151.198;2023-05-07T10:43:43;12.00;99.90
25991;DHT22;13779;-33.886;151.198;2023-05-07T10:46:19;12.00;99.90
25991;DHT22;13779;-33.886;151.198;2023-05-07T10:51:39;12.00;99.90
25991;DHT22;13779;-33.886;151.198;2023-05-07T10:56:44;11.70;99.90
25991;DHT22;13779;-33.886;151.198;2023-05-07T10:59:33;11.70;99.90
25991;DHT22;13779;-33.886;151.198;2023-05-07T11:02:10;11.70;99.90
25991;DHT22;13779;-33.886;151.198;2023-05-07T11:04:43;11.60;99.90
25991;DHT22;13779;-33.886;151.198;2023-05-07T11:07:21;11.70;99.90
25991;DHT22;13779;-33.886;151.198;2023-05-07T11:09:54;11.80;99.90
25991;DHT22;13779;-33.886;151.198;2023-05-07T11:15:11;11.70;99.90
25991;DHT22;13779;-33.886;151.198;2023-05-07T11:17:58;11.60;99.90
25991;DHT22;13779;-33.886;151.198;2023-05-07T11:20:48;11.60;99.90
25991;DHT22;13779;-33.886;151.198;2023-05-07T11:26:05;11.50;99.90
25991;DHT22;13779;-33.886;151.198;2023-05-07T11:28:40;11.40;99.90
25991;DHT22;13779;-33.886;151.198;2023-05-07T11:31:11;11.40;99.90
25991;DHT22;13779;-33.886;151.198;2023-05-07T11:33:41;11.30;99.90
25991;DHT22;13779;-33.886;151.198;2023-05-07T11:36:13;11.20;99.90
25991;DHT22;13779;-33.886;151.198;2023-05-07T11:38:44;11.00;99.90
25991;DHT22;13779;-33.886;151.198;2023-05-07T11:41:16;10.80;99.90
25991;DHT22;13779;-33.886;151.198;2023-05-07T11:43:57;10.80;99.90
25991;DHT22;13779;-33.886;151.198;2023-05-07T11:46:28;10.70;99.90
25991;DHT22;13779;-33.886;151.198;2023-05-07T11:49:00;10.50;99.90
25991;DHT22;13779;-33.886;151.198;2023-05-07T11:51:30;10.50;99.90
25991;DHT22;13779;-33.886;151.198;2023-05-07T11:54:03;10.30;99.90
25991;DHT22;13779;-33.886;151.198;2023-05-07T11:56:34;10.20;99.90
25991;DHT22;13779;-33.886;151.198;2023-05-07T11:59:04;10.30;99.90
25991;DHT22;13779;-33.886;151.198;2023-05-07T12:01:35;10.20;99.90
25991;DHT22;13779;-33.886;151.198;2023-05-07T12:04:06;10.00;99.90
25991;DHT22;13779;-33.886;151.198;2023-05-07T12:06:37;9.90;99.90
25991;DHT22;13779;-33.886;151.198;2023-05-07T12:09:08;10.00;99.90
25991;DHT22;13779;-33.886;151.198;2023-05-07T12:11:40;9.80;99.90
25991;DHT22;13779;-33.886;151.198;2023-05-07T12:14:15;9.60;99.90
25991;DHT22;13779;-33.886;151.198;2023-05-07T12:16:45;9.50;99.90
25991;DHT22;13779;-33.886;151.198;2023-05-07T12:19:16;9.40;99.90
25991;DHT22;13779;-33.886;151.198;2023-05-07T12:21:46;9.40;99.90
25991;DHT22;13779;-33.886;151.198;2023-05-07T12:24:16;9.50;99.90
25991;DHT22;13779;-33.886;151.198;2023-05-07T12:26:49;9.60;99.90
25991;DHT22;13779;-33.886;151.198;2023-05-07T12:29:22;9.60;99.90
25991;DHT22;13779;-33.886;151.198;2023-05-07T12:31:55;9.70;99.90
25991;DHT22;13779;-33.886;151.198;2023-05-07T12:34:25;9.70;99.90
25991;DHT22;13779;-33.886;151.198;2023-05-07T12:36:55;9.60;99.90
25991;DHT22;13779;-33.886;151.198;2023-05-07T12:39:25;9.60;99.90
25991;DHT22;13779;-33.886;151.198;2023-05-07T12:41:57;9.50;99.90
25991;DHT22;13779;-33.886;151.198;2023-05-07T12:44:32;9.30;99.90
25991;DHT22;13779;-33.886;151.198;2023-05-07T12:47:03;9.30;99.90
25991;DHT22;13779;-33.886;151.198;2023-05-07T12:49:35;9.40;99.90
25991;DHT22;13779;-33.886;151.198;2023-05-07T12:52:08;9.30;99.90
25991;DHT22;13779;-33.886;151.198;2023-05-07T12:54:38;9.40;99.90
25991;DHT22;13779;-33.886;151.198;2023-05-07T12:57:10;9.40;99.90
25991;DHT22;13779;-33.886;151.198;2023-05-07T12:59:41;9.30;99.90
25991;DHT22;13779;-33.886;151.198;2023-05-07T13:02:12;9.30;99.90
25991;DHT22;13779;-33.886;151.198;2023-05-07T13:04:43;9.40;99.90
25991;DHT22;13779;-33.886;151.198;2023-05-07T13:07:13;9.40;99.90
25991;DHT22;13779;-33.886;151.198;2023-05-07T13:09:44;9.50;99.90
25991;DHT22;13779;-33.886;151.198;2023-05-07T13:12:14;9.60;99.90
25991;DHT22;13779;-33.886;151.198;2023-05-07T13:14:45;9.60;99.90
25991;DHT22;13779;-33.886;151.198;2023-05-07T13:17:15;9.60;99.90
25991;DHT22;13779;-33.886;151.198;2023-05-07T13:19:49;9.50;99.90
25991;DHT22;13779;-33.886;151.198;2023-05-07T13:22:19;9.60;99.90
25991;DHT22;13779;-33.886;151.198;2023-05-07T13:24:49;9.50;99.90
25991;DHT22;13779;-33.886;151.198;2023-05-07T13:27:19;9.50;99.90
25991;DHT22;13779;-33.886;151.198;2023-05-07T13:29:50;9.60;99.90
25991;DHT22;13779;-33.886;151.198;2023-05-07T13:32:20;9.50;99.90
25991;DHT22;13779;-33.886;151.198;2023-05-07T13:34:51;9.50;99.90
25991;DHT22;13779;-33.886;151.198;2023-05-07T13:37:20;9.50;99.90
25991;DHT22;13779;-33.886;151.198;2023-05-07T13:39:51;9.60;99.90
25991;DHT22;13779;-33.886;151.198;2023-05-07T13:42:20;9.70;99.90
25991;DHT22;13779;-33.886;151.198;2023-05-07T13:44:51;9.60;99.90
25991;DHT22;13779;-33.886;151.198;2023-05-07T13:47:21;9.50;99.90
25991;DHT22;13779;-33.886;151.198;2023-05-07T13:49:51;9.60;99.90
25991;DHT22;13779;-33.886;151.198;2023-05-07T13:52:21;9.60;99.90
25991;DHT22;13779;-33.886;151.198;2023-05-07T13:54:51;9.60;99.90
25991;DHT22;13779;-33.886;151.198;2023-05-07T13:57:26;9.70;99.90
25991;DHT22;13779;-33.886;151.198;2023-05-07T13:59:56;9.70;99.90
25991;DHT22;13779;-33.886;151.198;2023-05-07T14:02:26;9.70;99.90
25991;DHT22;13779;-33.886;151.198;2023-05-07T14:04:56;9.80;99.90
25991;DHT22;13779;-33.886;151.198;2023-05-07T14:07:26;9.90;99.90
25991;DHT22;13779;-33.886;151.198;2023-05-07T14:09:57;9.90;99.90
25991;DHT22;13779;-33.886;151.198;2023-05-07T14:12:27;9.90;99.90
25991;DHT22;13779;-33.886;151.198;2023-05-07T14:14:57;9.90;99.90
25991;DHT22;13779;-33.886;151.198;2023-05-07T14:17:28;10.00;99.90
25991;DHT22;13779;-33.886;151.198;2023-05-07T14:19:58;9.90;99.90
25991;DHT22;13779;-33.886;151.198;2023-05-07T14:22:28;9.90;99.90
25991;DHT22;13779;-33.886;151.198;2023-05-07T14:24:58;9.90;99.90
25991;DHT22;13779;-33.886;151.198;2023-05-07T14:27:33;9.90;99.90
25991;DHT22;13779;-33.886;151.198;2023-05-07T14:30:04;10.00;99.90
25991;DHT22;13779;-33.886;151.198;2023-05-07T14:32:35;10.00;99.90
25991;DHT22;13779;-33.886;151.198;2023-05-07T14:35:05;10.00;99.90
25991;DHT22;13779;-33.886;151.198;2023-05-07T14:37:36;9.90;99.90
25991;DHT22;13779;-33.886;151.198;2023-05-07T14:40:07;10.00;99.90
25991;DHT22;13779;-33.886;151.198;2023-05-07T14:42:37;10.00;99.90
25991;DHT22;13779;-33.886;151.198;2023-05-07T14:45:08;10.10;99.90
25991;DHT22;13779;-33.886;151.198;2023-05-07T14:47:38;10.20;99.90
25991;DHT22;13779;-33.886;151.198;2023-05-07T14:50:09;10.20;99.90
25991;DHT22;13779;-33.886;151.198;2023-05-07T14:52:39;10.20;99.90
25991;DHT22;13779;-33.886;151.198;2023-05-07T14:55:09;10.20;99.90
25991;DHT22;13779;-33.886;151.198;2023-05-07T14:57:39;10.20;99.90
25991;DHT22;13779;-33.886;151.198;2023-05-07T15:00:10;10.20;99.90
25991;DHT22;13779;-33.886;151.198;2023-05-07T15:02:41;10.20;99.90
25991;DHT22;13779;-33.886;151.198;2023-05-07T15:05:11;10.20;99.90
25991;DHT22;13779;-33.886;151.198;2023-05-07T15:07:44;10.20;99.90
25991;DHT22;13779;-33.886;151.198;2023-05-07T15:10:14;10.30;99.90
25991;DHT22;13779;-33.886;151.198;2023-05-07T15:12:45;10.40;99.90
25991;DHT22;13779;-33.886;151.198;2023-05-07T15:15:16;10.40;99.90
25991;DHT22;13779;-33.886;151.198;2023-05-07T15:17:46;10.40;99.90
25991;DHT22;13779;-33.886;151.198;2023-05-07T15:20:17;10.60;99.90
25991;DHT22;13779;-33.886;151.198;2023-05-07T15:22:47;10.60;99.90
25991;DHT22;13779;-33.886;151.198;2023-05-07T15:25:18;10.70;99.90
25991;DHT22;13779;-33.886;151.198;2023-05-07T15:27:48;10.80;99.90